FMEP/ZSE METAR and TAF weather

Enter ICAO airport designator
Station Type Date Time Source
FMEP METAR 2020/03/31 22:30 UTC NOAA

FMEP 312230Z AUTO 05006KT CAVOK 25/22 Q1009


Station Type Date Time Source
FMEP Decoded METAR 2020/03/31 22:30 UTC NOAA

Saint-Pierre, Reunion (FMEP) 21-20S 055-29E 53M
Mar 31, 2020 - 06:30 PM EDT / 2020.03.31 2230 UTC
Wind: from the NE (050 degrees) at 7 MPH (6 KT):0
Visibility: greater than 7 mile(s):0
Temperature: 77 F (25 C)
Dew Point: 71 F (22 C)
Relative Humidity: 83%
Pressure (altimeter): 29.80 in. Hg (1009 hPa)
ob: FMEP 312230Z AUTO 05006KT CAVOK 25/22 Q1009
cycle: 22

Station Type Date Time Source
FMEP TAF 2020/02/07 12:00 UTC NOAA

TAF FMEP 071100Z 0712/0721 11020KT 9999 FEW030
TEMPO 0712/0715 11020G30KT
BECMG 0715/0717 08008KT

Example: see airport list